createdAt,value
2023-04-16T00:00:48.496Z,16.90
2023-04-16T00:05:09.652Z,15.80
2023-04-16T00:09:12.824Z,15.00
2023-04-16T00:13:16.635Z,14.80
2023-04-16T00:17:19.892Z,14.40
2023-04-16T00:21:23.271Z,14.30
2023-04-16T00:25:26.491Z,15.40
2023-04-16T00:29:31.246Z,15.50
2023-04-16T00:33:34.992Z,15.00
2023-04-16T00:37:38.909Z,17.30
2023-04-16T00:41:51.102Z,15.20
2023-04-16T00:45:57.301Z,13.40
2023-04-16T00:50:00.720Z,15.60
2023-04-16T00:54:04.622Z,16.70
2023-04-16T00:58:07.921Z,15.40
2023-04-16T01:02:11.244Z,15.30
2023-04-16T01:06:16.961Z,17.50
2023-04-16T01:10:20.300Z,13.90
2023-04-16T01:14:23.492Z,14.40
2023-04-16T01:18:27.228Z,14.80
2023-04-16T01:22:30.801Z,14.60
2023-04-16T01:26:35.151Z,17.30
2023-04-16T01:30:39.036Z,18.30
2023-04-16T01:34:42.759Z,16.90
2023-04-16T01:38:46.624Z,20.40
2023-04-16T01:42:51.815Z,20.70
2023-04-16T01:46:56.490Z,19.20
2023-04-16T01:51:00.781Z,17.40
2023-04-16T01:55:06.254Z,16.80
2023-04-16T01:59:10.583Z,15.70
2023-04-16T02:03:14.217Z,16.70
2023-04-16T02:07:17.998Z,17.40
2023-04-16T02:11:21.713Z,16.90
2023-04-16T02:15:25.533Z,12.80
2023-04-16T02:19:29.512Z,14.60
2023-04-16T02:23:34.170Z,17.60
2023-04-16T02:27:37.803Z,12.30
2023-04-16T02:31:42.693Z,16.40
2023-04-16T02:35:46.265Z,14.20
2023-04-16T02:39:50.169Z,13.40
2023-04-16T02:43:53.758Z,11.20
2023-04-16T02:47:57.990Z,13.20
2023-04-16T02:52:01.276Z,12.20
2023-04-16T02:56:05.402Z,16.20
2023-04-16T03:00:09.776Z,11.10
2023-04-16T03:04:13.590Z,12.40
2023-04-16T03:08:18.182Z,14.20
2023-04-16T03:12:22.269Z,15.10
2023-04-16T03:16:25.939Z,14.50
2023-04-16T03:20:29.277Z,15.00
2023-04-16T03:24:32.581Z,15.30
2023-04-16T03:28:36.017Z,16.00
2023-04-16T03:32:39.555Z,15.90
2023-04-16T03:36:42.978Z,17.70
2023-04-16T03:40:46.567Z,13.10
2023-04-16T03:44:50.671Z,15.10
2023-04-16T03:48:54.828Z,14.00
2023-04-16T03:52:58.816Z,12.00
2023-04-16T03:57:02.821Z,14.70
2023-04-16T04:01:06.579Z,14.90
2023-04-16T04:05:10.647Z,15.80
2023-04-16T04:09:16.712Z,13.70
2023-04-16T04:13:20.063Z,12.80
2023-04-16T04:17:23.480Z,9.60
2023-04-16T04:21:30.194Z,13.10
2023-04-16T04:25:33.744Z,10.20
2023-04-16T04:29:37.071Z,13.30
2023-04-16T04:33:40.588Z,14.60
2023-04-16T04:37:45.215Z,11.90
2023-04-16T04:41:49.134Z,17.30
2023-04-16T04:45:52.460Z,13.70
2023-04-16T04:49:55.749Z,14.20
2023-04-16T04:53:59.303Z,14.10
2023-04-16T04:58:04.064Z,14.50
2023-04-16T05:02:07.910Z,12.90
2023-04-16T05:06:11.471Z,14.30
2023-04-16T05:10:14.842Z,15.20
2023-04-16T05:14:18.113Z,12.30
2023-04-16T05:18:21.384Z,12.80
2023-04-16T05:22:24.659Z,14.00
2023-04-16T05:26:27.858Z,12.90
2023-04-16T05:30:31.256Z,12.40
2023-04-16T05:34:34.811Z,12.40
2023-04-16T05:38:38.312Z,15.20
2023-04-16T05:42:42.032Z,14.80
2023-04-16T05:46:45.989Z,14.90
2023-04-16T05:50:49.885Z,13.00
2023-04-16T05:54:54.386Z,13.10
2023-04-16T05:58:57.731Z,12.90
2023-04-16T06:03:01.364Z,12.70
2023-04-16T06:07:04.948Z,13.20
2023-04-16T06:11:08.520Z,12.20
2023-04-16T06:15:11.863Z,11.60
2023-04-16T06:19:15.496Z,11.80
2023-04-16T06:23:18.868Z,16.10
2023-04-16T06:27:23.563Z,13.00
2023-04-16T06:31:28.415Z,14.00
2023-04-16T06:35:31.974Z,16.40
2023-04-16T06:39:35.644Z,16.90
2023-04-16T06:43:39.819Z,14.40
2023-04-16T06:47:44.017Z,16.60
2023-04-16T07:08:29.169Z,14.40
2023-04-16T07:12:32.880Z,21.10
2023-04-16T07:16:37.260Z,21.70
2023-04-16T07:20:39.180Z,27.60
2023-04-16T07:24:40.953Z,26.30
2023-04-16T07:28:46.157Z,24.30
2023-04-16T07:32:47.983Z,19.70
2023-04-16T07:36:50.037Z,18.20
2023-04-16T07:40:54.982Z,25.10
2023-04-16T07:44:56.538Z,19.60
2023-04-16T07:49:02.198Z,17.00
2023-04-16T07:53:06.154Z,15.10
2023-04-16T07:57:07.887Z,18.10
2023-04-16T08:01:35.153Z,18.70
2023-04-16T08:05:36.918Z,18.60
2023-04-16T08:09:50.050Z,17.90
2023-04-16T08:13:51.823Z,19.00
2023-04-16T08:17:53.688Z,20.70
2023-04-16T08:22:18.091Z,22.50
2023-04-16T08:26:20.066Z,23.60
2023-04-16T08:30:21.634Z,27.70
2023-04-16T08:34:23.445Z,27.00
2023-04-16T08:38:27.211Z,28.30
2023-04-16T08:42:32.371Z,28.40
2023-04-16T08:46:38.122Z,30.70
2023-04-16T08:50:41.034Z,31.30
2023-04-16T08:55:00.197Z,27.30
2023-04-16T08:59:05.238Z,27.60
2023-04-16T09:03:09.485Z,25.90
2023-04-16T09:07:11.846Z,26.50
2023-04-16T09:11:13.970Z,25.40
2023-04-16T09:16:12.242Z,27.80
2023-04-16T09:20:15.638Z,26.30
2023-04-16T09:24:22.094Z,28.40
2023-04-16T09:33:26.104Z,26.20
2023-04-16T09:37:56.719Z,32.00
2023-04-16T09:41:58.890Z,28.10
2023-04-16T09:46:08.092Z,27.10
2023-04-16T09:50:18.196Z,24.00
2023-04-16T09:54:53.075Z,26.00
2023-04-16T09:59:01.908Z,23.30
2023-04-16T10:03:06.748Z,28.60
2023-04-16T10:07:09.028Z,22.20
2023-04-16T10:11:11.720Z,23.10
2023-04-16T10:15:13.509Z,22.90
2023-04-16T10:19:17.310Z,20.70
2023-04-16T10:23:23.390Z,24.10
2023-04-16T10:31:40.735Z,14.20
2023-04-16T10:35:46.841Z,12.50
2023-04-16T10:39:58.427Z,13.70
2023-04-16T10:44:10.731Z,15.80
2023-04-16T10:48:14.843Z,15.10
2023-04-16T10:52:16.821Z,12.20
2023-04-16T10:56:27.278Z,14.40
2023-04-16T11:00:29.077Z,11.90
2023-04-16T11:04:36.877Z,10.30
2023-04-16T11:08:53.280Z,9.40
2023-04-16T11:12:58.358Z,9.30
2023-04-16T11:17:03.587Z,5.90
2023-04-16T11:21:14.869Z,9.50
2023-04-16T11:25:30.940Z,7.50
2023-04-16T11:29:32.691Z,10.50
2023-04-16T11:33:34.198Z,9.30
2023-04-16T11:37:38.129Z,10.10
2023-04-16T11:41:50.439Z,9.50
2023-04-16T11:46:24.114Z,9.10
2023-04-16T11:54:50.984Z,6.70
2023-04-16T12:21:50.965Z,5.00
